Terminal Aerodrome Forecast
Issued by NWS

Home | Current Version | Previous Version | Text Only | Print | Product List | Glossary On
Versions: 1 2 3 4 5 6 7 8 9 10 11 12 13 14 15 16 17 18 19 20 21 22 23 24 25 26 27 28 29 30 31 32 33 34 35 36 37 38 39 40 41 42 43 44 45 46 47 48
000
FTUS46 KOTX 272333
TAFPUW
TAF
KPUW 272333Z 2800/2824 25014G20KT 5SM -SHSN SCT015 OVC035
      TEMPO 2800/2802 1SM -SHSN BKN015 OVC025
     FM280200 20005KT 2SM -SN BR OVC012
     FM280800 24010KT 3SM -SN OVC008
     FM281200 27011G16KT 2SM -SN BR OVC005
     FM281600 27013G19KT P6SM OVC008
     FM281800 26013G20KT P6SM BKN015=

USA.gov is the U.S. government's official web portal to all federal, state and local government web resources and services.